sensor_id;sensor_type;location;lat;lon;timestamp;pressure;altitude;pressure_sealevel;temperature;humidity
74346;BME280;62776;50.518;6.732;2023-02-02T00:02:33;97024.97;;;5.47;100.00
74346;BME280;62776;50.518;6.732;2023-02-02T00:05:34;97025.72;;;5.38;100.00
74346;BME280;62776;50.518;6.732;2023-02-02T00:08:30;97030.94;;;5.41;100.00
74346;BME280;62776;50.518;6.732;2023-02-02T00:13:57;97029.38;;;5.52;100.00
74346;BME280;62776;50.518;6.732;2023-02-02T00:16:57;97038.06;;;5.08;100.00
74346;BME280;62776;50.518;6.732;2023-02-02T00:19:49;97036.03;;;5.40;100.00
74346;BME280;62776;50.518;6.732;2023-02-02T00:22:42;97028.41;;;5.46;100.00
74346;BME280;62776;50.518;6.732;2023-02-02T00:25:29;97028.53;;;5.52;100.00
74346;BME280;62776;50.518;6.732;2023-02-02T00:28:18;97026.78;;;5.52;100.00
74346;BME280;62776;50.518;6.732;2023-02-02T00:31:05;97028.56;;;5.55;100.00
74346;BME280;62776;50.518;6.732;2023-02-02T00:33:51;97020.81;;;5.53;100.00
74346;BME280;62776;50.518;6.732;2023-02-02T00:36:42;97015.66;;;5.53;100.00
74346;BME280;62776;50.518;6.732;2023-02-02T00:39:28;97018.22;;;5.53;100.00
74346;BME280;62776;50.518;6.732;2023-02-02T00:42:15;97029.47;;;5.57;100.00
74346;BME280;62776;50.518;6.732;2023-02-02T00:45:02;97018.25;;;5.55;100.00
74346;BME280;62776;50.518;6.732;2023-02-02T00:48:01;97032.03;;;5.57;100.00
74346;BME280;62776;50.518;6.732;2023-02-02T00:50:55;97026.94;;;5.61;100.00
74346;BME280;62776;50.518;6.732;2023-02-02T00:53:42;97023.44;;;5.58;100.00
74346;BME280;62776;50.518;6.732;2023-02-02T00:56:29;97015.81;;;5.62;100.00
74346;BME280;62776;50.518;6.732;2023-02-02T00:59:23;97018.34;;;5.61;100.00
74346;BME280;62776;50.518;6.732;2023-02-02T01:02:12;97026.00;;;5.56;100.00
74346;BME280;62776;50.518;6.732;2023-02-02T01:05:02;97031.28;;;5.64;100.00
74346;BME280;62776;50.518;6.732;2023-02-02T01:07:49;97017.50;;;5.63;100.00
74346;BME280;62776;50.518;6.732;2023-02-02T01:10:40;97026.13;;;5.64;100.00
74346;BME280;62776;50.518;6.732;2023-02-02T01:13:27;97029.66;;;5.69;100.00
74346;BME280;62776;50.518;6.732;2023-02-02T01:16:16;97015.00;;;5.66;100.00
74346;BME280;62776;50.518;6.732;2023-02-02T01:19:32;97026.94;;;5.60;100.00
74346;BME280;62776;50.518;6.732;2023-02-02T01:30:21;97031.50;;;5.76;100.00
74346;BME280;62776;50.518;6.732;2023-02-02T01:36:09;97036.53;;;5.68;100.00
74346;BME280;62776;50.518;6.732;2023-02-02T01:39:04;97033.13;;;5.71;100.00
74346;BME280;62776;50.518;6.732;2023-02-02T01:42:04;97030.50;;;5.68;100.00
74346;BME280;62776;50.518;6.732;2023-02-02T01:45:34;97023.97;;;5.38;100.00
74346;BME280;62776;50.518;6.732;2023-02-02T01:56:58;97044.66;;;5.40;100.00
74346;BME280;62776;50.518;6.732;2023-02-02T02:03:27;97039.69;;;5.52;100.00
74346;BME280;62776;50.518;6.732;2023-02-02T02:06:29;97032.19;;;5.66;100.00
74346;BME280;62776;50.518;6.732;2023-02-02T02:15:27;97048.66;;;5.74;100.00
74346;BME280;62776;50.518;6.732;2023-02-02T02:22:13;97052.84;;;5.69;100.00
74346;BME280;62776;50.518;6.732;2023-02-02T02:42:45;97044.28;;;5.71;100.00
74346;BME280;62776;50.518;6.732;2023-02-02T02:45:35;97044.44;;;5.79;100.00
74346;BME280;62776;50.518;6.732;2023-02-02T02:48:30;97038.34;;;5.74;100.00
74346;BME280;62776;50.518;6.732;2023-02-02T02:51:53;97043.50;;;5.74;100.00
74346;BME280;62776;50.518;6.732;2023-02-02T02:54:49;97054.75;;;5.79;100.00
74346;BME280;62776;50.518;6.732;2023-02-02T02:58:11;97044.22;;;5.67;100.00
74346;BME280;62776;50.518;6.732;2023-02-02T03:01:16;97053.84;;;5.75;100.00
74346;BME280;62776;50.518;6.732;2023-02-02T03:04:17;97052.19;;;5.79;100.00
74346;BME280;62776;50.518;6.732;2023-02-02T03:07:16;97051.38;;;5.83;100.00
74346;BME280;62776;50.518;6.732;2023-02-02T03:10:34;97036.66;;;5.76;100.00
74346;BME280;62776;50.518;6.732;2023-02-02T03:13:31;97033.44;;;5.87;100.00
74346;BME280;62776;50.518;6.732;2023-02-02T03:17:04;97039.13;;;5.71;100.00
74346;BME280;62776;50.518;6.732;2023-02-02T03:19:53;97042.19;;;5.46;100.00
74346;BME280;62776;50.518;6.732;2023-02-02T03:22:57;97038.25;;;5.68;100.00
74346;BME280;62776;50.518;6.732;2023-02-02T03:58:13;97055.78;;;5.87;100.00
74346;BME280;62776;50.518;6.732;2023-02-02T04:01:10;97066.09;;;5.88;100.00
74346;BME280;62776;50.518;6.732;2023-02-02T05:36:37;97092.06;;;5.50;100.00
74346;BME280;62776;50.518;6.732;2023-02-02T05:43:47;97097.13;;;5.44;100.00
74346;BME280;62776;50.518;6.732;2023-02-02T06:09:38;97103.22;;;5.49;100.00
74346;BME280;62776;50.518;6.732;2023-02-02T06:12:26;97092.13;;;5.53;100.00
74346;BME280;62776;50.518;6.732;2023-02-02T06:15:12;97086.13;;;5.55;100.00
74346;BME280;62776;50.518;6.732;2023-02-02T06:18:02;97090.47;;;5.58;100.00
74346;BME280;62776;50.518;6.732;2023-02-02T06:20:54;97110.34;;;5.62;100.00
74346;BME280;62776;50.518;6.732;2023-02-02T06:23:43;97108.56;;;5.59;100.00
74346;BME280;62776;50.518;6.732;2023-02-02T06:26:30;97111.16;;;5.59;100.00
74346;BME280;62776;50.518;6.732;2023-02-02T06:29:17;97112.91;;;5.60;100.00
74346;BME280;62776;50.518;6.732;2023-02-02T06:32:13;97107.69;;;5.59;100.00
74346;BME280;62776;50.518;6.732;2023-02-02T06:35:05;97113.78;;;5.62;100.00
74346;BME280;62776;50.518;6.732;2023-02-02T06:37:54;97119.75;;;5.60;100.00
74346;BME280;62776;50.518;6.732;2023-02-02T06:40:45;97121.34;;;5.52;100.00
74346;BME280;62776;50.518;6.732;2023-02-02T06:43:32;97121.34;;;5.52;100.00
74346;BME280;62776;50.518;6.732;2023-02-02T06:46:18;97132.50;;;5.52;100.00
74346;BME280;62776;50.518;6.732;2023-02-02T06:49:07;97142.72;;;5.46;100.00
74346;BME280;62776;50.518;6.732;2023-02-02T06:52:12;97141.84;;;5.46;100.00
74346;BME280;62776;50.518;6.732;2023-02-02T06:54:59;97141.78;;;5.43;100.00
74346;BME280;62776;50.518;6.732;2023-02-02T06:57:46;97150.34;;;5.40;100.00
74346;BME280;62776;50.518;6.732;2023-02-02T07:00:34;97152.84;;;5.35;100.00
74346;BME280;62776;50.518;6.732;2023-02-02T07:03:23;97154.63;;;5.40;100.00
74346;BME280;62776;50.518;6.732;2023-02-02T07:06:19;97142.53;;;5.35;100.00
74346;BME280;62776;50.518;6.732;2023-02-02T07:09:09;97143.47;;;5.41;100.00
74346;BME280;62776;50.518;6.732;2023-02-02T07:12:05;97136.63;;;5.43;100.00
74346;BME280;62776;50.518;6.732;2023-02-02T07:14:54;97143.50;;;5.42;100.00
74346;BME280;62776;50.518;6.732;2023-02-02T07:17:40;97152.09;;;5.43;100.00
74346;BME280;62776;50.518;6.732;2023-02-02T07:20:41;97152.09;;;5.41;100.00
74346;BME280;62776;50.518;6.732;2023-02-02T07:23:29;97156.38;;;5.42;100.00
74346;BME280;62776;50.518;6.732;2023-02-02T07:26:17;97163.34;;;5.46;100.00
74346;BME280;62776;50.518;6.732;2023-02-02T07:29:07;97169.41;;;5.50;100.00
74346;BME280;62776;50.518;6.732;2023-02-02T07:31:54;97174.53;;;5.48;100.00
74346;BME280;62776;50.518;6.732;2023-02-02T07:34:47;97161.66;;;5.50;100.00
74346;BME280;62776;50.518;6.732;2023-02-02T07:37:33;97166.81;;;5.50;100.00
74346;BME280;62776;50.518;6.732;2023-02-02T07:40:23;97164.25;;;5.50;100.00
74346;BME280;62776;50.518;6.732;2023-02-02T07:43:15;97169.41;;;5.50;100.00
74346;BME280;62776;50.518;6.732;2023-02-02T07:46:08;97177.13;;;5.48;100.00
74346;BME280;62776;50.518;6.732;2023-02-02T07:48:58;97179.72;;;5.50;100.00
74346;BME280;62776;50.518;6.732;2023-02-02T07:51:44;97174.63;;;5.53;100.00
74346;BME280;62776;50.518;6.732;2023-02-02T07:54:34;97176.31;;;5.52;100.00
74346;BME280;62776;50.518;6.732;2023-02-02T07:57:26;97181.44;;;5.49;100.00
74346;BME280;62776;50.518;6.732;2023-02-02T08:00:17;97178.13;;;5.56;100.00
74346;BME280;62776;50.518;6.732;2023-02-02T08:03:21;97179.72;;;5.50;100.00
74346;BME280;62776;50.518;6.732;2023-02-02T08:05:50;97168.66;;;5.55;100.00
74346;BME280;62776;50.518;6.732;2023-02-02T08:08:39;97172.03;;;5.53;100.00
74346;BME280;62776;50.518;6.732;2023-02-02T08:11:28;97166.19;;;5.61;100.00
74346;BME280;62776;50.518;6.732;2023-02-02T08:14:15;97170.53;;;5.62;100.00
74346;BME280;62776;50.518;6.732;2023-02-02T08:17:04;97163.72;;;5.67;100.00
74346;BME280;62776;50.518;6.732;2023-02-02T08:19:50;97180.97;;;5.70;100.00
74346;BME280;62776;50.518;6.732;2023-02-02T08:22:39;97171.53;;;5.72;100.00
74346;BME280;62776;50.518;6.732;2023-02-02T08:25:33;97174.16;;;5.73;100.00
74346;BME280;62776;50.518;6.732;2023-02-02T08:28:22;97166.31;;;5.66;100.00
74346;BME280;62776;50.518;6.732;2023-02-02T08:31:18;97172.34;;;5.69;100.00
74346;BME280;62776;50.518;6.732;2023-02-02T08:34:07;97172.47;;;5.75;100.00
74346;BME280;62776;50.518;6.732;2023-02-02T08:36:57;97189.59;;;5.72;100.00
74346;BME280;62776;50.518;6.732;2023-02-02T08:39:43;97195.75;;;5.80;100.00
74346;BME280;62776;50.518;6.732;2023-02-02T08:42:31;97194.09;;;5.82;100.00
74346;BME280;62776;50.518;6.732;2023-02-02T08:45:17;97204.50;;;5.85;100.00
74346;BME280;62776;50.518;6.732;2023-02-02T08:48:10;97206.94;;;5.79;100.00
74346;BME280;62776;50.518;6.732;2023-02-02T08:51:01;97203.59;;;5.84;100.00
74346;BME280;62776;50.518;6.732;2023-02-02T08:53:53;97200.97;;;5.83;100.00
74346;BME280;62776;50.518;6.732;2023-02-02T08:56:49;97204.53;;;5.86;100.00
74346;BME280;62776;50.518;6.732;2023-02-02T08:59:38;97202.84;;;5.88;100.00
74346;BME280;62776;50.518;6.732;2023-02-02T09:02:27;97211.41;;;5.86;100.00
74346;BME280;62776;50.518;6.732;2023-02-02T09:05:13;97207.00;;;5.83;100.00
74346;BME280;62776;50.518;6.732;2023-02-02T09:08:00;97214.03;;;5.87;100.00
74346;BME280;62776;50.518;6.732;2023-02-02T09:10:52;97222.59;;;5.88;100.00
74346;BME280;62776;50.518;6.732;2023-02-02T09:13:48;97209.69;;;5.88;100.00
74346;BME280;62776;50.518;6.732;2023-02-02T09:16:38;97204.84;;;6.03;100.00
74346;BME280;62776;50.518;6.732;2023-02-02T09:19:24;97208.41;;;6.11;100.00
74346;BME280;62776;50.518;6.732;2023-02-02T09:22:11;97219.78;;;6.22;100.00
74346;BME280;62776;50.518;6.732;2023-02-02T09:24:57;97230.25;;;6.30;100.00
74346;BME280;62776;50.518;6.732;2023-02-02T09:27:46;97242.28;;;6.29;100.00
74346;BME280;62776;50.518;6.732;2023-02-02T09:30:41;97232.72;;;6.24;100.00
74346;BME280;62776;50.518;6.732;2023-02-02T09:33:38;97232.09;;;6.37;100.00
74346;BME280;62776;50.518;6.732;2023-02-02T09:36:29;97245.06;;;6.41;100.00
74346;BME280;62776;50.518;6.732;2023-02-02T09:39:16;97243.31;;;6.40;100.00
74346;BME280;62776;50.518;6.732;2023-02-02T09:42:19;97265.44;;;6.26;100.00
74346;BME280;62776;50.518;6.732;2023-02-02T09:45:39;97256.69;;;6.18;100.00
74346;BME280;62776;50.518;6.732;2023-02-02T09:48:55;97254.97;;;6.17;100.00
74346;BME280;62776;50.518;6.732;2023-02-02T09:51:48;97264.69;;;6.32;100.00
74346;BME280;62776;50.518;6.732;2023-02-02T09:55:17;97264.66;;;6.29;100.00
74346;BME280;62776;50.518;6.732;2023-02-02T10:04:35;97288.53;;;6.17;100.00
74346;BME280;62776;50.518;6.732;2023-02-02T10:07:43;97298.06;;;6.21;100.00
74346;BME280;62776;50.518;6.732;2023-02-02T10:10:39;97313.56;;;6.21;100.00
74346;BME280;62776;50.518;6.732;2023-02-02T10:13:32;97325.63;;;6.22;100.00
74346;BME280;62776;50.518;6.732;2023-02-02T10:16:27;97317.06;;;6.26;100.00
74346;BME280;62776;50.518;6.732;2023-02-02T10:19:16;97310.28;;;6.30;100.00
74346;BME280;62776;50.518;6.732;2023-02-02T10:22:13;97310.28;;;6.30;100.00
74346;BME280;62776;50.518;6.732;2023-02-02T10:25:03;97314.03;;;6.45;100.00
74346;BME280;62776;50.518;6.732;2023-02-02T10:28:19;97309.63;;;6.40;100.00
74346;BME280;62776;50.518;6.732;2023-02-02T10:31:24;97312.63;;;6.66;100.00
74346;BME280;62776;50.518;6.732;2023-02-02T10:38:07;97304.66;;;7.06;100.00
74346;BME280;62776;50.518;6.732;2023-02-02T10:44:23;97297.16;;;7.23;100.00
74346;BME280;62776;50.518;6.732;2023-02-02T10:47:21;97293.72;;;7.24;100.00
74346;BME280;62776;50.518;6.732;2023-02-02T10:50:19;97308.31;;;7.20;100.00
74346;BME280;62776;50.518;6.732;2023-02-02T10:53:17;97314.38;;;7.21;100.00
74346;BME280;62776;50.518;6.732;2023-02-02T10:56:05;97322.19;;;7.24;100.00
74346;BME280;62776;50.518;6.732;2023-02-02T10:59:16;97319.53;;;7.21;100.00
74346;BME280;62776;50.518;6.732;2023-02-02T11:04:37;97325.56;;;7.20;100.00
74346;BME280;62776;50.518;6.732;2023-02-02T11:07:43;97322.22;;;7.28;100.00
74346;BME280;62776;50.518;6.732;2023-02-02T11:10:40;97310.16;;;7.27;100.00
74346;BME280;62776;50.518;6.732;2023-02-02T11:13:39;97312.72;;;7.24;100.00
74346;BME280;62776;50.518;6.732;2023-02-02T11:16:34;97305.09;;;7.35;100.00
74346;BME280;62776;50.518;6.732;2023-02-02T11:19:23;97305.16;;;7.39;100.00
74346;BME280;62776;50.518;6.732;2023-02-02T11:22:30;97316.41;;;7.41;100.00
74346;BME280;62776;50.518;6.732;2023-02-02T11:25:29;97305.19;;;7.42;100.00
74346;BME280;62776;50.518;6.732;2023-02-02T11:28:25;97308.47;;;7.29;100.00
74346;BME280;62776;50.518;6.732;2023-02-02T11:31:46;97316.13;;;7.23;100.00
74346;BME280;62776;50.518;6.732;2023-02-02T11:34:35;97327.63;;;7.43;100.00
74346;BME280;62776;50.518;6.732;2023-02-02T11:39:51;97306.13;;;7.47;100.00
74346;BME280;62776;50.518;6.732;2023-02-02T11:42:46;97310.38;;;7.42;100.00
74346;BME280;62776;50.518;6.732;2023-02-02T11:45:40;97324.22;;;7.44;100.00
74346;BME280;62776;50.518;6.732;2023-02-02T11:48:38;97318.22;;;7.47;100.00
74346;BME280;62776;50.518;6.732;2023-02-02T11:51:27;97321.78;;;7.55;100.00
74346;BME280;62776;50.518;6.732;2023-02-02T11:54:29;97310.66;;;7.60;100.00
74346;BME280;62776;50.518;6.732;2023-02-02T11:57:23;97310.69;;;7.66;100.00
74346;BME280;62776;50.518;6.732;2023-02-02T12:00:23;97308.88;;;7.59;100.00
74346;BME280;62776;50.518;6.732;2023-02-02T12:03:26;97307.22;;;7.63;100.00
74346;BME280;62776;50.518;6.732;2023-02-02T12:06:27;97302.13;;;7.69;100.00
74346;BME280;62776;50.518;6.732;2023-02-02T12:09:24;97303.94;;;7.78;100.00
74346;BME280;62776;50.518;6.732;2023-02-02T12:19:03;97281.59;;;7.84;100.00
74346;BME280;62776;50.518;6.732;2023-02-02T12:22:34;97285.03;;;7.82;100.00
74346;BME280;62776;50.518;6.732;2023-02-02T12:26:00;97288.50;;;7.84;100.00
74346;BME280;62776;50.518;6.732;2023-02-02T12:32:25;97288.81;;;8.09;100.00
74346;BME280;62776;50.518;6.732;2023-02-02T12:35:50;97286.34;;;8.23;100.00
74346;BME280;62776;50.518;6.732;2023-02-02T12:39:22;97283.81;;;8.26;100.00
74346;BME280;62776;50.518;6.732;2023-02-02T12:45:46;97271.09;;;8.46;100.00
74346;BME280;62776;50.518;6.732;2023-02-02T12:52:04;97289.19;;;8.43;100.00
74346;BME280;62776;50.518;6.732;2023-02-02T12:55:09;97285.69;;;8.41;100.00
74346;BME280;62776;50.518;6.732;2023-02-02T13:13:00;97281.31;;;8.32;100.00
74346;BME280;62776;50.518;6.732;2023-02-02T13:15:54;97280.44;;;8.33;100.00
74346;BME280;62776;50.518;6.732;2023-02-02T13:18:58;97282.94;;;8.24;100.00
74346;BME280;62776;50.518;6.732;2023-02-02T13:21:25;97277.91;;;8.38;100.00
74346;BME280;62776;50.518;6.732;2023-02-02T13:24:27;97285.72;;;8.42;100.00
74346;BME280;62776;50.518;6.732;2023-02-02T13:27:21;97285.69;;;8.38;100.00
74346;BME280;62776;50.518;6.732;2023-02-02T13:30:31;97287.16;;;8.19;100.00
74346;BME280;62776;50.518;6.732;2023-02-02T13:33:24;97295.06;;;8.28;100.00
74346;BME280;62776;50.518;6.732;2023-02-02T13:36:21;97294.25;;;8.32;100.00
74346;BME280;62776;50.518;6.732;2023-02-02T13:39:19;97297.56;;;8.20;100.00
74346;BME280;62776;50.518;6.732;2023-02-02T13:42:24;97297.47;;;8.13;100.00
74346;BME280;62776;50.518;6.732;2023-02-02T13:51:49;97307.56;;;7.92;100.00
74346;BME280;62776;50.518;6.732;2023-02-02T14:01:10;97317.88;;;7.89;100.00
74346;BME280;62776;50.518;6.732;2023-02-02T14:04:21;97325.44;;;7.72;100.00
74346;BME280;62776;50.518;6.732;2023-02-02T14:07:08;97322.16;;;7.85;100.00
74346;BME280;62776;50.518;6.732;2023-02-02T14:09:58;97329.84;;;7.81;100.00
74346;BME280;62776;50.518;6.732;2023-02-02T14:12:59;97316.88;;;7.76;100.00
74346;BME280;62776;50.518;6.732;2023-02-02T14:15:54;97316.78;;;7.68;100.00
74346;BME280;62776;50.518;6.732;2023-02-02T14:18:53;97318.53;;;7.71;100.00
74346;BME280;62776;50.518;6.732;2023-02-02T14:30:21;97332.47;;;7.82;100.00
74346;BME280;62776;50.518;6.732;2023-02-02T14:33:25;97338.53;;;7.83;100.00
74346;BME280;62776;50.518;6.732;2023-02-02T14:36:19;97336.97;;;7.97;100.00
74346;BME280;62776;50.518;6.732;2023-02-02T14:39:13;97331.66;;;7.86;100.00
74346;BME280;62776;50.518;6.732;2023-02-02T14:45:45;97335.13;;;7.87;100.00
74346;BME280;62776;50.518;6.732;2023-02-02T14:48:35;97337.75;;;7.88;100.00
74346;BME280;62776;50.518;6.732;2023-02-02T14:51:27;97338.59;;;7.87;100.00
74346;BME280;62776;50.518;6.732;2023-02-02T14:54:21;97333.38;;;7.86;100.00
74346;BME280;62776;50.518;6.732;2023-02-02T14:57:26;97331.56;;;7.77;100.00
74346;BME280;62776;50.518;6.732;2023-02-02T15:00:27;97328.91;;;7.72;100.00
74346;BME280;62776;50.518;6.732;2023-02-02T15:06:37;97348.03;;;7.84;100.00
74346;BME280;62776;50.518;6.732;2023-02-02T15:09:37;97343.59;;;7.73;100.00
74346;BME280;62776;50.518;6.732;2023-02-02T15:12:41;97342.78;;;7.81;100.00
74346;BME280;62776;50.518;6.732;2023-02-02T15:15:31;97354.06;;;7.86;100.00
74346;BME280;62776;50.518;6.732;2023-02-02T15:18:37;97350.53;;;7.78;100.00
74346;BME280;62776;50.518;6.732;2023-02-02T15:21:37;97354.81;;;7.76;100.00
74346;BME280;62776;50.518;6.732;2023-02-02T15:24:41;97355.69;;;7.76;100.00
74346;BME280;62776;50.518;6.732;2023-02-02T15:27:39;97361.69;;;7.75;100.00
74346;BME280;62776;50.518;6.732;2023-02-02T15:30:34;97373.72;;;7.68;100.00
74346;BME280;62776;50.518;6.732;2023-02-02T15:33:43;97370.19;;;7.65;100.00
74346;BME280;62776;50.518;6.732;2023-02-02T15:36:34;97376.19;;;7.62;100.00
74346;BME280;62776;50.518;6.732;2023-02-02T15:39:27;97384.88;;;7.67;100.00
74346;BME280;62776;50.518;6.732;2023-02-02T15:42:20;97392.56;;;7.60;100.00
74346;BME280;62776;50.518;6.732;2023-02-02T15:45:50;97403.53;;;7.45;100.00
74346;BME280;62776;50.518;6.732;2023-02-02T15:48:40;97405.53;;;7.64;100.00
74346;BME280;62776;50.518;6.732;2023-02-02T15:51:31;97403.88;;;7.68;100.00
74346;BME280;62776;50.518;6.732;2023-02-02T15:54:24;97397.72;;;7.60;100.00
74346;BME280;62776;50.518;6.732;2023-02-02T16:00:30;97412.13;;;7.43;100.00
74346;BME280;62776;50.518;6.732;2023-02-02T16:03:29;97405.38;;;7.52;100.00
74346;BME280;62776;50.518;6.732;2023-02-02T16:06:29;97412.31;;;7.56;100.00
74346;BME280;62776;50.518;6.732;2023-02-02T16:09:08;97406.22;;;7.51;100.00
74346;BME280;62776;50.518;6.732;2023-02-02T16:12:03;97414.75;;;7.44;100.00
74346;BME280;62776;50.518;6.732;2023-02-02T16:14:59;97418.88;;;7.33;100.00
74346;BME280;62776;50.518;6.732;2023-02-02T16:18:00;97416.97;;;7.22;100.00
74346;BME280;62776;50.518;6.732;2023-02-02T16:20:48;97413.59;;;7.27;100.00
74346;BME280;62776;50.518;6.732;2023-02-02T16:23:35;97417.03;;;7.26;100.00
74346;BME280;62776;50.518;6.732;2023-02-02T16:26:26;97421.25;;;7.21;100.00
74346;BME280;62776;50.518;6.732;2023-02-02T16:29:17;97421.25;;;7.21;100.00
74346;BME280;62776;50.518;6.732;2023-02-02T16:38:36;97425.38;;;7.10;100.00
74346;BME280;62776;50.518;6.732;2023-02-02T16:44:40;97420.09;;;7.04;100.00
74346;BME280;62776;50.518;6.732;2023-02-02T16:47:37;97428.84;;;7.12;100.00
74346;BME280;62776;50.518;6.732;2023-02-02T16:50:28;97439.19;;;7.12;100.00
74346;BME280;62776;50.518;6.732;2023-02-02T16:53:25;97439.91;;;7.03;100.00
74346;BME280;62776;50.518;6.732;2023-02-02T16:56:29;97438.13;;;6.99;100.00
74346;BME280;62776;50.518;6.732;2023-02-02T16:59:25;97439.94;;;7.05;100.00
74346;BME280;62776;50.518;6.732;2023-02-02T17:05:48;97444.91;;;6.94;100.00
74346;BME280;62776;50.518;6.732;2023-02-02T17:08:40;97442.56;;;7.08;100.00
74346;BME280;62776;50.518;6.732;2023-02-02T17:11:27;97443.53;;;7.13;100.00
74346;BME280;62776;50.518;6.732;2023-02-02T17:14:23;97442.63;;;7.11;100.00
74346;BME280;62776;50.518;6.732;2023-02-02T17:17:17;97445.22;;;7.12;100.00
74346;BME280;62776;50.518;6.732;2023-02-02T17:20:07;97454.81;;;7.18;100.00
74346;BME280;62776;50.518;6.732;2023-02-02T17:23:02;97461.56;;;7.10;100.00
74346;BME280;62776;50.518;6.732;2023-02-02T17:25:49;97464.25;;;7.16;100.00
74346;BME280;62776;50.518;6.732;2023-02-02T17:28:44;97467.66;;;7.13;100.00
74346;BME280;62776;50.518;6.732;2023-02-02T17:31:38;97469.50;;;7.19;100.00
74346;BME280;62776;50.518;6.732;2023-02-02T17:34:25;97471.13;;;7.14;100.00
74346;BME280;62776;50.518;6.732;2023-02-02T17:37:12;97480.66;;;7.17;100.00
74346;BME280;62776;50.518;6.732;2023-02-02T17:40:02;97486.59;;;7.12;100.00
74346;BME280;62776;50.518;6.732;2023-02-02T17:42:57;97495.31;;;7.18;100.00
74346;BME280;62776;50.518;6.732;2023-02-02T17:45:47;97490.94;;;7.15;100.00
74346;BME280;62776;50.518;6.732;2023-02-02T17:48:42;97490.88;;;7.12;100.00
74346;BME280;62776;50.518;6.732;2023-02-02T17:51:28;97483.94;;;7.08;100.00
74346;BME280;62776;50.518;6.732;2023-02-02T17:54:17;97472.66;;;7.03;100.00
74346;BME280;62776;50.518;6.732;2023-02-02T17:57:11;97478.72;;;7.05;100.00
74346;BME280;62776;50.518;6.732;2023-02-02T17:59:57;97481.25;;;7.03;100.00
74346;BME280;62776;50.518;6.732;2023-02-02T18:02:45;97479.53;;;7.02;100.00
74346;BME280;62776;50.518;6.732;2023-02-02T18:05:37;97465.41;;;6.85;100.00
74346;BME280;62776;50.518;6.732;2023-02-02T18:08:24;97457.69;;;6.87;100.00
74346;BME280;62776;50.518;6.732;2023-02-02T18:11:12;97460.06;;;6.75;100.00
74346;BME280;62776;50.518;6.732;2023-02-02T18:13:59;97469.50;;;6.74;100.00
74346;BME280;62776;50.518;6.732;2023-02-02T18:16:46;97475.50;;;6.73;100.00
74346;BME280;62776;50.518;6.732;2023-02-02T18:19:44;97489.16;;;6.66;100.00
74346;BME280;62776;50.518;6.732;2023-02-02T18:22:34;97490.16;;;6.73;100.00
74346;BME280;62776;50.518;6.732;2023-02-02T18:25:28;97488.50;;;6.76;100.00
74346;BME280;62776;50.518;6.732;2023-02-02T18:28:15;97492.09;;;6.84;100.00
74346;BME280;62776;50.518;6.732;2023-02-02T18:31:16;97486.09;;;6.85;100.00
74346;BME280;62776;50.518;6.732;2023-02-02T18:34:09;97501.72;;;6.93;100.00
74346;BME280;62776;50.518;6.732;2023-02-02T18:36:55;97500.06;;;6.95;100.00
74346;BME280;62776;50.518;6.732;2023-02-02T18:39:42;97501.84;;;6.97;100.00
74346;BME280;62776;50.518;6.732;2023-02-02T18:42:30;97491.53;;;7.00;100.00
74346;BME280;62776;50.518;6.732;2023-02-02T18:45:18;97492.47;;;7.04;100.00
74346;BME280;62776;50.518;6.732;2023-02-02T18:48:06;97497.56;;;6.99;100.00
74346;BME280;62776;50.518;6.732;2023-02-02T18:50:55;97490.78;;;7.06;100.00
74346;BME280;62776;50.518;6.732;2023-02-02T18:53:43;97490.75;;;7.03;100.00
74346;BME280;62776;50.518;6.732;2023-02-02T18:56:42;97492.59;;;7.10;100.00
74346;BME280;62776;50.518;6.732;2023-02-02T18:59:28;97486.59;;;7.12;100.00
74346;BME280;62776;50.518;6.732;2023-02-02T19:02:27;97486.53;;;7.09;100.00
74346;BME280;62776;50.518;6.732;2023-02-02T19:05:16;97497.81;;;7.13;100.00
74346;BME280;62776;50.518;6.732;2023-02-02T19:08:21;97490.94;;;7.15;100.00
74346;BME280;62776;50.518;6.732;2023-02-02T19:11:15;97494.34;;;7.11;100.00
74346;BME280;62776;50.518;6.732;2023-02-02T19:14:09;97495.16;;;7.10;100.00
74346;BME280;62776;50.518;6.732;2023-02-02T19:17:24;97488.94;;;7.00;100.00
74346;BME280;62776;50.518;6.732;2023-02-02T19:20:25;97490.78;;;7.06;100.00
74346;BME280;62776;50.518;6.732;2023-02-02T19:23:14;97484.88;;;7.13;100.00
74346;BME280;62776;50.518;6.732;2023-02-02T19:26:01;97483.25;;;7.18;100.00
74346;BME280;62776;50.518;6.732;2023-02-02T19:28:53;97482.34;;;7.16;100.00
74346;BME280;62776;50.518;6.732;2023-02-02T19:31:40;97483.25;;;7.18;100.00
74346;BME280;62776;50.518;6.732;2023-02-02T19:34:28;97496.97;;;7.14;100.00
74346;BME280;62776;50.518;6.732;2023-02-02T19:37:28;97500.31;;;7.08;100.00
74346;BME280;62776;50.518;6.732;2023-02-02T19:40:18;97500.41;;;7.14;100.00
74346;BME280;62776;50.518;6.732;2023-02-02T19:45:58;97500.50;;;6.73;100.00
74346;BME280;62776;50.518;6.732;2023-02-02T19:48:58;97506.19;;;7.00;100.00
74346;BME280;62776;50.518;6.732;2023-02-02T19:51:51;97508.03;;;7.05;100.00
74346;BME280;62776;50.518;6.732;2023-02-02T19:54:42;97503.69;;;7.06;100.00
74346;BME280;62776;50.518;6.732;2023-02-02T19:57:34;97504.56;;;7.05;100.00
74346;BME280;62776;50.518;6.732;2023-02-02T20:00:24;97495.00;;;7.01;100.00
74346;BME280;62776;50.518;6.732;2023-02-02T20:03:27;97496.63;;;6.96;100.00
74346;BME280;62776;50.518;6.732;2023-02-02T20:06:25;97487.84;;;6.86;100.00
74346;BME280;62776;50.518;6.732;2023-02-02T20:09:23;97492.13;;;6.86;100.00
74346;BME280;62776;50.518;6.732;2023-02-02T20:12:29;97502.91;;;6.64;100.00
74346;BME280;62776;50.518;6.732;2023-02-02T20:15:30;97498.63;;;6.66;100.00
74346;BME280;62776;50.518;6.732;2023-02-02T20:18:21;97494.47;;;6.72;100.00
74346;BME280;62776;50.518;6.732;2023-02-02T20:21:19;97513.25;;;6.65;100.00
74346;BME280;62776;50.518;6.732;2023-02-02T20:24:37;97524.25;;;6.57;100.00
74346;BME280;62776;50.518;6.732;2023-02-02T20:27:28;97512.69;;;6.80;100.00
74346;BME280;62776;50.518;6.732;2023-02-02T20:30:25;97509.28;;;6.81;100.00